createdAt,value
2022-08-26T00:02:11.628Z,101809.78
2022-08-26T00:04:40.221Z,101775.38
2022-08-26T00:07:08.589Z,101798.00
2022-08-26T00:09:40.234Z,101790.88
2022-08-26T00:12:12.292Z,101800.84
2022-08-26T00:14:41.718Z,101799.28
2022-08-26T00:17:10.571Z,101788.09
2022-08-26T00:19:39.404Z,101809.38
2022-08-26T00:22:08.806Z,101801.50
2022-08-26T00:24:36.866Z,101804.25
2022-08-26T00:27:06.541Z,101793.81
2022-08-26T00:29:37.460Z,101809.72
2022-08-26T00:32:06.847Z,101804.34
2022-08-26T00:34:35.401Z,101805.25
2022-08-26T00:37:09.451Z,101804.44
2022-08-26T00:39:41.256Z,101802.72
2022-08-26T00:42:09.561Z,101799.19
2022-08-26T00:44:40.013Z,101802.81
2022-08-26T00:47:15.181Z,101796.41
2022-08-26T00:49:47.606Z,101798.97
2022-08-26T00:52:21.862Z,101792.25
2022-08-26T00:54:58.281Z,101790.31
2022-08-26T00:57:28.000Z,101795.78
2022-08-26T01:00:01.341Z,101773.19
2022-08-26T01:02:30.215Z,101773.97
2022-08-26T01:05:01.477Z,101780.09
2022-08-26T01:07:34.737Z,101789.84
2022-08-26T01:10:06.965Z,101745.19
2022-08-26T01:12:41.276Z,101774.16
2022-08-26T01:15:14.948Z,101783.81
2022-08-26T01:17:43.935Z,101799.59
2022-08-26T01:20:24.309Z,101796.16
2022-08-26T01:22:57.854Z,101796.16
2022-08-26T01:25:29.154Z,101796.16
2022-08-26T01:28:00.260Z,101792.75
2022-08-26T01:30:31.322Z,101782.94
2022-08-26T01:33:02.369Z,101799.09
2022-08-26T01:35:30.583Z,101784.00
2022-08-26T01:38:02.385Z,101787.63
2022-08-26T01:40:37.782Z,101788.38
2022-08-26T01:43:09.660Z,101784.78
2022-08-26T01:45:40.874Z,101782.13
2022-08-26T01:48:16.763Z,101765.47
2022-08-26T01:50:46.696Z,101780.09
2022-08-26T01:53:19.013Z,101777.84
2022-08-26T01:55:54.307Z,101776.91
2022-08-26T01:58:26.040Z,101771.34
2022-08-26T02:00:54.887Z,101770.97
2022-08-26T02:03:23.826Z,101770.97
2022-08-26T02:05:55.776Z,101769.31
2022-08-26T02:08:29.553Z,101753.25
2022-08-26T02:10:58.773Z,101770.31
2022-08-26T02:13:30.174Z,101769.69
2022-08-26T02:16:00.843Z,101776.81
2022-08-26T02:18:31.101Z,101769.81
2022-08-26T02:20:59.203Z,101771.47
2022-08-26T02:23:29.012Z,101760.63
2022-08-26T02:26:03.800Z,101760.84
2022-08-26T02:28:38.961Z,101764.34
2022-08-26T02:31:08.029Z,101762.47
2022-08-26T02:33:38.271Z,101759.31
2022-08-26T02:36:12.201Z,101759.41
2022-08-26T02:38:43.248Z,101755.78
2022-08-26T02:41:11.436Z,101753.94
2022-08-26T02:43:39.817Z,101752.28
2022-08-26T02:46:08.100Z,101750.56
2022-08-26T02:48:36.844Z,101755.75
2022-08-26T02:51:05.619Z,101754.03
2022-08-26T02:53:35.552Z,101754.94
2022-08-26T02:56:09.562Z,101747.16
2022-08-26T02:58:38.199Z,101747.81
2022-08-26T03:01:06.590Z,101746.09
2022-08-26T03:03:34.869Z,101751.69
2022-08-26T03:06:03.068Z,101730.53
2022-08-26T03:08:31.121Z,101741.88
2022-08-26T03:10:59.536Z,101733.13
2022-08-26T03:13:31.503Z,101736.72
2022-08-26T03:16:02.219Z,101736.63
2022-08-26T03:18:30.626Z,101743.94
2022-08-26T03:20:58.999Z,101730.63
2022-08-26T03:23:27.184Z,101732.47
2022-08-26T03:25:56.707Z,101735.19
2022-08-26T03:28:27.240Z,101729.81
2022-08-26T03:30:56.131Z,101735.00
2022-08-26T03:33:24.649Z,101733.31
2022-08-26T03:35:53.875Z,101737.03
2022-08-26T03:38:25.363Z,101724.97
2022-08-26T03:40:53.860Z,101735.50
2022-08-26T03:43:22.458Z,101726.50
2022-08-26T03:45:51.318Z,101730.13
2022-08-26T03:48:22.154Z,101725.13
2022-08-26T03:50:50.577Z,101726.50
2022-08-26T03:53:20.586Z,101730.31
2022-08-26T03:55:52.045Z,101723.50
2022-08-26T03:58:21.286Z,101723.41
2022-08-26T04:00:49.488Z,101720.84
2022-08-26T04:03:39.480Z,101655.19
2022-08-26T04:06:08.350Z,101713.03
2022-08-26T04:08:38.029Z,101714.88
2022-08-26T04:11:07.998Z,101702.75
2022-08-26T04:13:38.273Z,101717.84
2022-08-26T04:16:06.803Z,101720.28
2022-08-26T04:18:38.344Z,101715.84
2022-08-26T04:21:15.531Z,101717.53
2022-08-26T04:23:47.124Z,101724.63
2022-08-26T04:26:15.411Z,101715.84
2022-08-26T04:28:43.735Z,101703.06
2022-08-26T04:31:14.811Z,101712.56
2022-08-26T04:33:46.586Z,101722.63
2022-08-26T04:36:14.854Z,101719.06
2022-08-26T04:38:43.400Z,101719.00
2022-08-26T04:41:15.318Z,101714.53
2022-08-26T04:43:46.603Z,101716.22
2022-08-26T04:46:18.745Z,101715.41
2022-08-26T04:48:49.172Z,101719.00
2022-08-26T04:51:17.364Z,101726.91
2022-08-26T04:53:45.501Z,101727.75
2022-08-26T04:56:14.039Z,101715.59
2022-08-26T04:58:42.388Z,101729.59
2022-08-26T05:01:10.523Z,101720.84
2022-08-26T05:03:39.207Z,101718.16
2022-08-26T05:06:12.377Z,101724.53
2022-08-26T05:08:41.187Z,101722.69
2022-08-26T05:11:10.667Z,101726.19
2022-08-26T05:13:39.580Z,101727.22
2022-08-26T05:16:11.603Z,101728.13
2022-08-26T05:18:41.456Z,101735.34
2022-08-26T05:21:20.207Z,101726.47
2022-08-26T05:23:50.644Z,101732.09
2022-08-26T05:26:23.102Z,101729.59
2022-08-26T05:28:54.872Z,101734.88
2022-08-26T05:31:25.677Z,101721.63
2022-08-26T05:33:55.023Z,101729.59
2022-08-26T05:36:26.848Z,101729.69
2022-08-26T05:38:55.429Z,101731.47
2022-08-26T05:41:34.455Z,101731.47
2022-08-26T05:44:06.633Z,101737.47
2022-08-26T05:46:36.721Z,101729.50
2022-08-26T05:49:06.624Z,101708.41
2022-08-26T05:51:45.204Z,101732.72
2022-08-26T05:54:14.077Z,101736.78
2022-08-26T05:56:49.673Z,101727.78
2022-08-26T05:59:24.214Z,101726.97
2022-08-26T06:01:53.466Z,101730.31
2022-08-26T06:04:22.624Z,101733.94
2022-08-26T06:06:54.627Z,101732.19
2022-08-26T06:09:22.999Z,101732.19
2022-08-26T06:11:51.691Z,101691.66
2022-08-26T06:14:19.992Z,101726.81
2022-08-26T06:16:48.472Z,101727.78
2022-08-26T06:19:17.346Z,101718.16
2022-08-26T06:21:51.370Z,101728.78
2022-08-26T06:24:41.971Z,101698.81
2022-08-26T06:27:15.167Z,101721.28
2022-08-26T06:29:43.761Z,101721.94
2022-08-26T06:32:12.619Z,101721.06
2022-08-26T06:34:40.791Z,101721.06
2022-08-26T06:37:09.891Z,101705.88
2022-08-26T06:39:41.184Z,101708.41
2022-08-26T06:42:11.015Z,101712.03
2022-08-26T06:44:40.937Z,101711.19
2022-08-26T06:47:09.445Z,101712.03
2022-08-26T06:49:38.478Z,101708.41
2022-08-26T06:52:08.130Z,101706.56
2022-08-26T06:54:37.173Z,101708.63
2022-08-26T06:57:09.024Z,101706.69
2022-08-26T06:59:37.599Z,101708.94
2022-08-26T07:02:06.751Z,101700.59
2022-08-26T07:04:36.648Z,101666.97
2022-08-26T07:07:05.413Z,101687.56
2022-08-26T07:09:35.454Z,101687.47
2022-08-26T07:12:06.822Z,101683.66
2022-08-26T07:14:36.851Z,101676.56
2022-08-26T07:17:07.347Z,101679.34
2022-08-26T07:19:37.741Z,101682.72
2022-08-26T07:22:08.618Z,101678.13
2022-08-26T07:24:40.663Z,101681.50
2022-08-26T07:27:13.279Z,101686.53
2022-08-26T07:29:45.099Z,101685.00
2022-08-26T07:32:15.859Z,101685.63
2022-08-26T07:34:45.102Z,101659.84
2022-08-26T07:37:13.581Z,101676.59
2022-08-26T07:39:43.210Z,101674.78
2022-08-26T07:42:14.600Z,101678.09
2022-08-26T07:44:44.440Z,101675.25
2022-08-26T07:47:25.167Z,101673.28
2022-08-26T07:49:55.095Z,101669.53
2022-08-26T07:52:26.589Z,101679.25
2022-08-26T07:54:55.796Z,101670.56
2022-08-26T07:57:24.175Z,101675.50
2022-08-26T07:59:55.165Z,101667.56
2022-08-26T08:02:25.135Z,101666.41
2022-08-26T08:04:54.707Z,101664.53
2022-08-26T08:07:38.687Z,101666.88
2022-08-26T08:10:13.711Z,101659.19
2022-08-26T08:12:42.852Z,101665.34
2022-08-26T08:15:13.986Z,101664.38
2022-08-26T08:17:43.080Z,101644.28
2022-08-26T08:20:12.765Z,101668.63
2022-08-26T08:22:41.402Z,101651.72
2022-08-26T08:25:10.542Z,101647.44
2022-08-26T08:27:41.176Z,101652.09
2022-08-26T08:30:10.908Z,101625.56
2022-08-26T08:32:44.560Z,101657.72
2022-08-26T08:35:15.504Z,101653.81
2022-08-26T08:37:44.835Z,101642.09
2022-08-26T08:40:18.592Z,101637.25
2022-08-26T08:45:27.530Z,101644.41
2022-08-26T08:47:59.312Z,101642.44
2022-08-26T08:50:34.035Z,101648.38
2022-08-26T08:53:11.230Z,101640.47
2022-08-26T08:55:50.160Z,101651.59
2022-08-26T08:58:21.840Z,101646.34
2022-08-26T09:00:55.606Z,101638.75
2022-08-26T09:03:42.769Z,101633.19
2022-08-26T09:06:17.501Z,101635.19
2022-08-26T09:08:49.997Z,101639.69
2022-08-26T09:11:20.862Z,101635.88
2022-08-26T09:13:53.216Z,101626.13
2022-08-26T09:16:26.271Z,101618.38
2022-08-26T09:19:11.985Z,101596.88
2022-08-26T09:21:40.389Z,101624.09
2022-08-26T09:24:11.318Z,101616.19
2022-08-26T09:26:48.154Z,101623.31
2022-08-26T09:29:24.505Z,101622.88
2022-08-26T09:31:53.598Z,101590.41
2022-08-26T09:34:25.887Z,101609.63
2022-08-26T09:36:55.945Z,101612.25
2022-08-26T09:39:34.826Z,101582.03
2022-08-26T09:42:12.395Z,101603.06
2022-08-26T09:44:57.265Z,101607.25
2022-08-26T09:47:29.993Z,101599.69
2022-08-26T09:50:04.660Z,101601.97
2022-08-26T09:52:40.626Z,101594.69
2022-08-26T09:55:14.906Z,101562.84
2022-08-26T09:57:51.241Z,101584.06
2022-08-26T10:00:29.627Z,101582.66
2022-08-26T10:02:59.243Z,101582.06
2022-08-26T10:05:36.054Z,101582.94
2022-08-26T10:08:24.135Z,101572.16
2022-08-26T10:10:53.559Z,101574.75
2022-08-26T10:13:26.819Z,101576.97
2022-08-26T10:16:04.678Z,101572.06
2022-08-26T10:18:37.329Z,101567.22
2022-08-26T10:21:11.527Z,101571.66
2022-08-26T10:23:44.916Z,101571.41
2022-08-26T10:26:17.690Z,101565.78
2022-08-26T10:28:51.243Z,101570.16
2022-08-26T10:31:28.906Z,101561.59
2022-08-26T10:34:00.480Z,101549.09
2022-08-26T10:37:13.810Z,101557.81
2022-08-26T10:39:49.133Z,101549.38
2022-08-26T10:42:26.900Z,101537.59
2022-08-26T10:45:04.329Z,101556.38
2022-08-26T10:47:39.134Z,101525.06
2022-08-26T10:50:08.212Z,101539.56
2022-08-26T10:52:52.691Z,101557.75
2022-08-26T10:55:29.097Z,101547.31
2022-08-26T10:58:15.093Z,101550.38
2022-08-26T11:01:22.739Z,101556.06
2022-08-26T11:04:00.456Z,101549.69
2022-08-26T11:06:30.929Z,101548.09
2022-08-26T11:09:02.964Z,101548.63
2022-08-26T11:11:49.687Z,101557.19
2022-08-26T11:14:58.969Z,101566.56
2022-08-26T11:17:56.725Z,101529.72
2022-08-26T11:20:41.556Z,101552.09
2022-08-26T11:23:40.375Z,101556.13
2022-08-26T11:26:35.885Z,101561.84
2022-08-26T11:29:12.201Z,101552.38
2022-08-26T11:31:56.870Z,101556.94
2022-08-26T11:34:54.311Z,101554.41
2022-08-26T11:37:27.552Z,101548.19
2022-08-26T11:39:57.477Z,101549.03
2022-08-26T11:42:36.949Z,101544.84
2022-08-26T11:45:18.411Z,101529.19
2022-08-26T11:47:49.501Z,101541.34
2022-08-26T11:50:23.642Z,101531.34
2022-08-26T11:52:53.685Z,101523.94
2022-08-26T11:55:23.415Z,101529.78
2022-08-26T11:57:57.617Z,101522.03
2022-08-26T12:00:33.529Z,101516.66
2022-08-26T12:03:09.835Z,101520.75
2022-08-26T12:05:49.231Z,101503.44
2022-08-26T12:08:21.814Z,101526.97
2022-08-26T12:10:50.336Z,101523.06
2022-08-26T12:13:27.350Z,101527.88
2022-08-26T12:15:58.387Z,101518.09
2022-08-26T12:18:30.821Z,101507.00
2022-08-26T12:21:12.357Z,101514.13
2022-08-26T12:23:46.740Z,101485.78
2022-08-26T12:26:24.644Z,101510.53
2022-08-26T12:28:58.381Z,101517.06
2022-08-26T12:31:30.529Z,101507.81
2022-08-26T12:34:01.976Z,101500.28
2022-08-26T12:36:33.422Z,101496.41
2022-08-26T12:39:10.034Z,101498.00
2022-08-26T12:41:45.289Z,101494.25
2022-08-26T12:44:35.061Z,101488.41
2022-08-26T12:47:05.325Z,101493.31
2022-08-26T12:49:33.733Z,101489.25
2022-08-26T12:52:02.047Z,101457.34
2022-08-26T12:54:44.202Z,101488.41
2022-08-26T12:57:13.605Z,101480.22
2022-08-26T12:59:43.397Z,101471.72
2022-08-26T13:02:11.821Z,101466.19
2022-08-26T13:04:45.148Z,101465.22
2022-08-26T13:07:20.238Z,101465.56
2022-08-26T13:09:48.627Z,101470.00
2022-08-26T13:12:25.741Z,101465.72
2022-08-26T13:14:55.480Z,101465.06
2022-08-26T13:17:23.757Z,101464.59
2022-08-26T13:19:51.923Z,101460.13
2022-08-26T13:22:24.492Z,101458.53
2022-08-26T13:24:55.432Z,101463.00
2022-08-26T13:27:27.904Z,101449.81
2022-08-26T13:29:59.216Z,101450.69
2022-08-26T13:32:29.328Z,101437.31
2022-08-26T13:34:58.828Z,101448.91
2022-08-26T13:37:34.955Z,101432.25
2022-08-26T13:40:05.279Z,101435.22
2022-08-26T13:42:34.550Z,101428.72
2022-08-26T13:45:05.578Z,101417.72
2022-08-26T13:47:33.985Z,101416.63
2022-08-26T13:50:02.162Z,101414.00
2022-08-26T13:52:31.204Z,101413.69
2022-08-26T13:55:00.964Z,101413.19
2022-08-26T13:57:30.310Z,101406.94
2022-08-26T14:00:00.315Z,101401.00
2022-08-26T14:02:31.244Z,101401.25
2022-08-26T14:04:59.578Z,101398.38
2022-08-26T14:07:28.299Z,101394.47
2022-08-26T14:09:56.459Z,101396.13
2022-08-26T14:12:25.036Z,101401.41
2022-08-26T14:14:53.104Z,101393.06
2022-08-26T14:17:23.450Z,101394.28
2022-08-26T14:19:53.830Z,101393.69
2022-08-26T14:22:23.634Z,101388.97
2022-08-26T14:24:52.187Z,101396.22
2022-08-26T14:27:20.357Z,101404.94
2022-08-26T14:29:48.381Z,101397.66
2022-08-26T14:32:23.156Z,101400.97
2022-08-26T14:34:53.401Z,101399.91
2022-08-26T14:37:21.959Z,101403.69
2022-08-26T14:39:50.435Z,101401.47
2022-08-26T14:42:23.964Z,101400.50
2022-08-26T14:44:56.266Z,101401.44
2022-08-26T14:47:24.538Z,101394.56
2022-08-26T14:49:54.337Z,101411.22
2022-08-26T14:52:22.760Z,101410.84
2022-08-26T14:54:54.924Z,101405.88
2022-08-26T14:57:24.128Z,101409.06
2022-08-26T14:59:52.489Z,101410.03
2022-08-26T15:02:32.302Z,101399.91
2022-08-26T15:05:02.904Z,101413.00
2022-08-26T15:07:31.316Z,101392.75
2022-08-26T15:09:59.495Z,101404.44
2022-08-26T15:12:28.271Z,101408.91
2022-08-26T15:14:56.444Z,101412.22
2022-08-26T15:17:24.633Z,101412.78
2022-08-26T15:19:53.039Z,101414.13
2022-08-26T15:22:22.591Z,101410.16
2022-08-26T15:24:53.647Z,101403.31
2022-08-26T15:27:22.474Z,101407.69
2022-08-26T15:29:51.845Z,101402.47
2022-08-26T15:32:19.972Z,101411.31
2022-08-26T15:34:50.170Z,101400.94
2022-08-26T15:37:23.472Z,101405.28
2022-08-26T15:39:52.209Z,101395.66
2022-08-26T15:42:21.045Z,101392.72
2022-08-26T15:44:49.975Z,101396.50
2022-08-26T15:47:18.593Z,101370.06
2022-08-26T15:49:46.656Z,101385.31
2022-08-26T15:52:16.925Z,101380.78
2022-08-26T15:54:46.665Z,101384.72
2022-08-26T15:57:16.521Z,101392.16
2022-08-26T15:59:47.367Z,101382.28
2022-08-26T16:02:15.462Z,101387.19
2022-08-26T16:04:43.653Z,101380.06
2022-08-26T16:07:12.839Z,101374.84
2022-08-26T16:09:40.894Z,101374.69
2022-08-26T16:12:10.648Z,101367.81
2022-08-26T16:14:42.469Z,101356.03
2022-08-26T16:17:10.551Z,101363.63
2022-08-26T16:19:38.840Z,101353.19
2022-08-26T16:22:08.310Z,101359.34
2022-08-26T16:24:36.692Z,101367.41
2022-08-26T16:27:04.920Z,101360.00
2022-08-26T16:29:34.801Z,101351.28
2022-08-26T16:32:08.701Z,101361.91
2022-08-26T16:34:38.886Z,101360.91
2022-08-26T16:37:24.147Z,101355.38
2022-08-26T16:39:52.696Z,101355.53
2022-08-26T16:42:21.049Z,101369.31
2022-08-26T16:44:52.403Z,101359.03
2022-08-26T16:47:21.640Z,101357.44
2022-08-26T16:49:49.837Z,101355.97
2022-08-26T16:52:18.819Z,101359.59
2022-08-26T16:54:47.296Z,101355.81
2022-08-26T16:57:15.806Z,101348.28
2022-08-26T16:59:43.900Z,101340.97
2022-08-26T17:02:13.561Z,101345.22
2022-08-26T17:04:41.611Z,101336.22
2022-08-26T17:07:14.576Z,101344.94
2022-08-26T17:09:43.159Z,101350.16
2022-08-26T17:12:11.235Z,101343.94
2022-08-26T17:14:39.768Z,101312.44
2022-08-26T17:17:08.363Z,101344.06
2022-08-26T17:19:47.042Z,101341.06
2022-08-26T17:22:15.974Z,101336.81
2022-08-26T17:24:44.455Z,101337.22
2022-08-26T17:27:12.678Z,101329.44
2022-08-26T17:29:41.090Z,101342.31
2022-08-26T17:32:09.727Z,101327.13
2022-08-26T17:34:41.723Z,101357.47
2022-08-26T17:37:09.977Z,101349.22
2022-08-26T17:39:42.583Z,101361.69
2022-08-26T17:42:11.978Z,101351.09
2022-08-26T17:44:40.544Z,101359.81
2022-08-26T17:47:11.374Z,101372.44
2022-08-26T17:49:41.140Z,101375.94
2022-08-26T17:52:11.537Z,101378.75
2022-08-26T17:54:41.048Z,101373.47
2022-08-26T17:57:12.083Z,101372.00
2022-08-26T17:59:42.485Z,101367.63
2022-08-26T18:02:10.940Z,101369.53
2022-08-26T18:04:40.878Z,101364.28
2022-08-26T18:07:10.900Z,101359.19
2022-08-26T18:09:39.251Z,101372.22
2022-08-26T18:12:08.248Z,101375.22
2022-08-26T18:14:37.389Z,101385.41
2022-08-26T18:17:05.841Z,101368.50
2022-08-26T18:19:34.132Z,101365.16
2022-08-26T18:22:04.025Z,101380.38
2022-08-26T18:24:32.700Z,101379.50
2022-08-26T18:27:00.765Z,101372.53
2022-08-26T18:29:29.460Z,101380.28
2022-08-26T18:31:57.847Z,101382.25
2022-08-26T18:34:26.381Z,101381.75
2022-08-26T18:37:03.220Z,101381.81
2022-08-26T18:39:32.965Z,101386.88
2022-08-26T18:42:01.256Z,101375.50
2022-08-26T18:44:29.364Z,101380.81
2022-08-26T18:46:57.713Z,101371.34
2022-08-26T18:49:26.207Z,101360.88
2022-08-26T18:51:54.835Z,101364.38
2022-08-26T18:54:23.437Z,101379.06
2022-08-26T18:56:52.964Z,101374.81
2022-08-26T18:59:29.558Z,101368.81
2022-08-26T19:01:59.301Z,101373.25
2022-08-26T19:04:27.672Z,101374.34
2022-08-26T19:06:56.984Z,101376.72
2022-08-26T19:09:26.457Z,101372.59
2022-08-26T19:14:30.428Z,101373.50
2022-08-26T19:16:58.619Z,101372.47
2022-08-26T19:19:26.872Z,101369.16
2022-08-26T19:21:55.506Z,101371.13
2022-08-26T19:24:25.918Z,101367.75
2022-08-26T19:27:01.259Z,101382.09
2022-08-26T19:29:31.584Z,101371.13
2022-08-26T19:32:00.161Z,101369.66
2022-08-26T19:34:28.438Z,101366.00
2022-08-26T19:36:58.481Z,101362.09
2022-08-26T19:39:26.969Z,101371.38
2022-08-26T19:41:55.215Z,101364.38
2022-08-26T19:44:43.017Z,101353.78
2022-08-26T19:47:13.146Z,101357.75
2022-08-26T19:49:41.235Z,101359.53
2022-08-26T19:52:11.141Z,101357.66
2022-08-26T19:54:40.805Z,101360.00
2022-08-26T19:57:09.173Z,101351.22
2022-08-26T19:59:39.026Z,101336.63
2022-08-26T20:02:11.091Z,101338.97
2022-08-26T20:04:40.142Z,101313.84
2022-08-26T20:07:12.915Z,101337.34
2022-08-26T20:09:43.412Z,101329.38
2022-08-26T20:12:11.797Z,101325.91
2022-08-26T20:14:41.306Z,101333.13
2022-08-26T20:17:09.391Z,101328.91
2022-08-26T20:19:55.160Z,101330.84
2022-08-26T20:22:23.552Z,101328.28
2022-08-26T20:24:52.239Z,101322.78
2022-08-26T20:27:22.395Z,101318.31
2022-08-26T20:29:52.313Z,101313.97
2022-08-26T20:32:20.468Z,101322.78
2022-08-26T20:34:49.480Z,101308.72
2022-08-26T20:37:18.628Z,101314.09
2022-08-26T20:39:50.143Z,101310.84
2022-08-26T20:42:20.465Z,101310.16
2022-08-26T20:44:54.352Z,101313.53
2022-08-26T20:47:24.781Z,101307.66
2022-08-26T20:49:53.182Z,101286.97
2022-08-26T20:52:21.402Z,101305.13
2022-08-26T20:54:49.680Z,101310.91
2022-08-26T20:57:17.948Z,101315.38
2022-08-26T20:59:46.013Z,101310.38
2022-08-26T21:02:14.303Z,101308.78
2022-08-26T21:04:43.826Z,101304.22
2022-08-26T21:07:12.003Z,101313.97
2022-08-26T21:09:40.465Z,101316.72
2022-08-26T21:12:10.243Z,101321.72
2022-08-26T21:14:38.394Z,101332.41
2022-08-26T21:17:07.803Z,101327.34
2022-08-26T21:19:35.851Z,101327.63
2022-08-26T21:22:05.649Z,101329.34
2022-08-26T21:24:34.350Z,101324.97
2022-08-26T21:27:02.423Z,101320.09
2022-08-26T21:29:30.442Z,101331.31
2022-08-26T21:31:58.912Z,101335.78
2022-08-26T21:34:27.045Z,101337.91
2022-08-26T21:36:55.493Z,101332.53
2022-08-26T21:39:25.540Z,101332.66
2022-08-26T21:41:53.602Z,101325.84
2022-08-26T21:44:22.122Z,101324.97
2022-08-26T21:46:50.965Z,101320.28
2022-08-26T21:49:19.108Z,101329.25
2022-08-26T21:51:49.087Z,101328.81
2022-08-26T21:54:18.252Z,101336.19
2022-08-26T21:56:48.741Z,101330.94
2022-08-26T21:59:19.576Z,101335.53
2022-08-26T22:01:48.379Z,101331.16
2022-08-26T22:04:16.921Z,101331.16
2022-08-26T22:06:47.889Z,101328.47
2022-08-26T22:09:19.092Z,101320.44
2022-08-26T22:11:48.956Z,101322.97
2022-08-26T22:14:19.261Z,101317.09
2022-08-26T22:16:50.329Z,101313.38
2022-08-26T22:19:20.223Z,101313.50
2022-08-26T22:21:49.493Z,101306.38
2022-08-26T22:24:17.865Z,101318.97
2022-08-26T22:26:47.605Z,101320.94
2022-08-26T22:29:18.306Z,101322.59
2022-08-26T22:31:47.412Z,101306.53
2022-08-26T22:34:17.559Z,101324.31
2022-08-26T22:36:47.520Z,101314.72
2022-08-26T22:39:17.445Z,101317.69
2022-08-26T22:41:46.762Z,101321.75
2022-08-26T22:44:16.663Z,101319.44
2022-08-26T22:46:45.562Z,101322.06
2022-08-26T22:49:17.023Z,101312.97
2022-08-26T22:51:45.899Z,101330.38
2022-08-26T22:54:15.466Z,101334.13
2022-08-26T22:56:44.727Z,101321.03
2022-08-26T22:59:13.913Z,101332.84
2022-08-26T23:01:46.657Z,101320.69
2022-08-26T23:04:15.573Z,101332.94
2022-08-26T23:06:47.598Z,101332.13
2022-08-26T23:09:18.307Z,101318.06
2022-08-26T23:11:47.811Z,101314.69
2022-08-26T23:14:16.520Z,101320.84
2022-08-26T23:16:47.811Z,101308.53
2022-08-26T23:19:17.452Z,101321.53
2022-08-26T23:21:45.642Z,101322.31
2022-08-26T23:24:14.621Z,101322.41
2022-08-26T23:26:43.367Z,101330.53
2022-08-26T23:29:13.335Z,101323.19
2022-08-26T23:31:42.956Z,101310.72
2022-08-26T23:34:29.967Z,101315.09
2022-08-26T23:36:59.196Z,101316.34
2022-08-26T23:39:28.423Z,101314.00
2022-08-26T23:41:56.966Z,101320.50
2022-08-26T23:44:26.689Z,101315.09
2022-08-26T23:46:55.349Z,101309.81
2022-08-26T23:49:25.511Z,101313.63
2022-08-26T23:52:11.784Z,101316.91
2022-08-26T23:54:41.251Z,101314.50
2022-08-26T23:57:09.791Z,101313.56
2022-08-26T23:59:39.293Z,101300.19
